Terminal Aerodrome Forecast
Issued by NWS Charleston, WV

Home | Current Version | Previous Version | Text Only | Print | Product List | Glossary On
Versions: 1 2 3 4 5 6 7 8 9 10 11 12 13 14 15 16 17 18 19 20 21
240
FTUS41 KRLX 261724
TAFCRW
TAF
KCRW 261724Z 2618/2718 33005KT P6SM FEW250
     FM262200 03003KT P6SM FEW250
     FM270900 00000KT 5SM BR FEW250
     FM271100 00000KT 1SM BR BKN001
     FM271230 00000KT 3SM BR SCT001
     FM271330 00000KT P6SM FEW001 SCT040
     FM271400 35004KT P6SM SCT040=

USA.gov is the U.S. government's official web portal to all federal, state and local government web resources and services.